Time;durP1;ratioP1;P1;durP2;ratioP2;P2;SDS_P1;SDS_P2;PMS_P1;PMS_P2;Temp;Humidity;BMP_temperature;BMP_pressure;BME280_temperature;BME280_humidity;BME280_pressure;Samples;Min_cycle;Max_cycle;Signal;HPM_P1;HPM_P2
2023/07/11 00:02:22;;;;;;;2.08;0.75;;;24.20;60.10;;;;;;5032715;28;20109;-60
2023/07/11 00:04:48;;;;;;;1.65;0.70;;;24.20;60.10;;;;;;5032256;28;21247;-60
2023/07/11 00:07:13;;;;;;;1.55;0.75;;;24.20;60.80;;;;;;5033010;28;20041;-60
2023/07/11 00:09:39;;;;;;;2.08;0.70;;;24.20;60.20;;;;;;5032694;28;20382;-60
2023/07/11 00:12:05;;;;;;;1.40;0.70;;;24.20;60.20;;;;;;5032447;28;20116;-60
2023/07/11 00:14:31;;;;;;;1.20;0.70;;;24.20;60.20;;;;;;5032797;28;20053;-60
2023/07/11 00:16:56;;;;;;;2.15;0.80;;;24.20;60.30;;;;;;5031084;28;20050;-59
2023/07/11 00:19:22;;;;;;;1.92;0.70;;;24.20;60.30;;;;;;5032191;28;20481;-59
2023/07/11 00:21:48;;;;;;;3.35;0.88;;;24.20;60.30;;;;;;5032650;28;20391;-60
2023/07/11 00:24:13;;;;;;;2.03;0.60;;;24.20;60.40;;;;;;5033252;28;20041;-60
2023/07/11 00:26:39;;;;;;;4.25;0.70;;;24.20;61.00;;;;;;5032120;28;20037;-59
2023/07/11 00:29:15;;;;;;;1.48;0.70;;;24.20;60.40;;;;;;5032883;28;20045;-59
2023/07/11 00:31:40;;;;;;;2.60;0.90;;;24.20;60.40;;;;;;5032047;28;20065;-59
2023/07/11 00:34:06;;;;;;;1.58;0.82;;;24.20;60.50;;;;;;5032249;28;20077;-59
2023/07/11 00:36:31;;;;;;;1.45;0.70;;;24.20;60.50;;;;;;5032449;28;20037;-60
2023/07/11 00:38:57;;;;;;;1.70;0.90;;;24.20;60.50;;;;;;5032499;28;20049;-59
2023/07/11 00:41:22;;;;;;;2.58;0.80;;;24.20;60.50;;;;;;5032160;28;20033;-59
2023/07/11 00:43:48;;;;;;;2.00;0.70;;;24.20;60.50;;;;;;5032559;28;20496;-60
2023/07/11 00:46:15;;;;;;;2.05;0.77;;;24.20;60.50;;;;;;5030962;28;20041;-60
2023/07/11 00:48:49;;;;;;;1.90;0.70;;;24.20;60.60;;;;;;5031638;28;20048;-60
2023/07/11 00:51:18;;;;;;;2.35;0.70;;;24.20;61.20;;;;;;5031327;28;20040;-59
2023/07/11 00:53:44;;;;;;;1.73;0.70;;;24.20;60.60;;;;;;5030105;28;20140;-60
2023/07/11 00:56:11;;;;;;;1.42;0.80;;;24.20;60.60;;;;;;5030963;28;20124;-59
2023/07/11 00:58:38;;;;;;;1.30;0.50;;;24.20;60.70;;;;;;5029946;28;20057;-60
2023/07/11 01:01:03;;;;;;;1.38;0.65;;;24.20;61.30;;;;;;5029814;28;20096;-60
2023/07/11 01:03:29;;;;;;;2.00;0.70;;;24.20;60.70;;;;;;5014631;28;20057;-60
2023/07/11 01:05:56;;;;;;;1.60;0.80;;;24.20;60.70;;;;;;5031070;28;20049;-60
2023/07/11 01:08:21;;;;;;;1.67;0.68;;;24.20;60.70;;;;;;5030497;28;20395;-60
2023/07/11 01:10:47;;;;;;;1.27;0.65;;;24.10;60.70;;;;;;5031247;28;20496;-60
2023/07/11 01:13:13;;;;;;;2.15;0.75;;;24.10;60.70;;;;;;5032016;28;20041;-60
2023/07/11 01:15:38;;;;;;;1.42;0.70;;;24.10;60.70;;;;;;5029622;28;20045;-61
2023/07/11 01:18:04;;;;;;;2.72;0.73;;;24.10;60.80;;;;;;5031715;28;20042;-60
2023/07/11 01:20:29;;;;;;;1.30;0.60;;;24.10;60.80;;;;;;5030579;28;20046;-60
2023/07/11 01:22:55;;;;;;;1.00;0.60;;;24.10;60.80;;;;;;5031639;28;20487;-60
2023/07/11 01:25:22;;;;;;;1.48;0.60;;;24.10;60.80;;;;;;5032397;28;20041;-60
2023/07/11 01:27:48;;;;;;;2.40;0.90;;;24.10;60.80;;;;;;5031163;28;20129;-60
2023/07/11 01:30:17;;;;;;;1.63;0.60;;;24.10;60.80;;;;;;5031797;28;20061;-60
2023/07/11 01:32:42;;;;;;;1.90;0.70;;;24.10;60.80;;;;;;5031033;28;20464;-60
2023/07/11 01:35:08;;;;;;;1.50;0.77;;;24.10;60.80;;;;;;5030447;28;20128;-60
2023/07/11 01:37:34;;;;;;;1.23;0.60;;;24.10;60.80;;;;;;5031161;28;20045;-60
2023/07/11 01:39:59;;;;;;;1.70;0.70;;;24.10;60.90;;;;;;5032345;28;20396;-61
2023/07/11 01:42:25;;;;;;;1.48;0.70;;;24.10;60.90;;;;;;5031978;28;20046;-60
2023/07/11 01:44:51;;;;;;;1.45;0.70;;;24.10;61.00;;;;;;5031290;28;20053;-60
2023/07/11 01:47:16;;;;;;;1.92;0.77;;;24.10;60.90;;;;;;5031632;28;20037;-60
2023/07/11 01:49:42;;;;;;;1.13;0.68;;;24.10;61.00;;;;;;5030124;28;20045;-60
2023/07/11 01:52:18;;;;;;;1.48;0.70;;;24.10;61.00;;;;;;5029995;28;20135;-60
2023/07/11 01:54:44;;;;;;;1.17;0.70;;;24.10;61.00;;;;;;5031597;28;20061;-60
2023/07/11 01:57:10;;;;;;;1.80;0.80;;;24.10;61.00;;;;;;5030986;28;20049;-61
2023/07/11 01:59:36;;;;;;;1.70;0.70;;;24.10;61.00;;;;;;5031892;28;20049;-60
2023/07/11 02:02:02;;;;;;;1.60;0.65;;;24.10;61.00;;;;;;5021933;28;20113;-60
2023/07/11 02:04:27;;;;;;;1.20;0.60;;;24.10;61.10;;;;;;5011181;28;20584;-60
2023/07/11 02:06:53;;;;;;;1.65;0.73;;;24.10;61.10;;;;;;5011337;28;20046;-60
2023/07/11 02:09:19;;;;;;;1.50;0.70;;;24.00;61.00;;;;;;5011447;28;20128;-60
2023/07/11 02:11:45;;;;;;;1.52;0.68;;;24.10;61.10;;;;;;5015308;28;20042;-60
2023/07/11 02:14:14;;;;;;;1.88;0.80;;;24.10;61.10;;;;;;5015858;28;20054;-60
2023/07/11 02:16:44;;;;;;;1.73;0.73;;;24.00;61.00;;;;;;5015215;28;20046;-60
2023/07/11 02:19:13;;;;;;;1.90;0.90;;;24.00;61.10;;;;;;5014874;28;20048;-60
2023/07/11 02:21:39;;;;;;;2.08;0.70;;;24.00;61.10;;;;;;5015651;28;20485;-60
2023/07/11 02:24:06;;;;;;;1.30;0.68;;;24.00;61.10;;;;;;5015425;28;20083;-60
2023/07/11 02:26:31;;;;;;;1.75;0.80;;;24.00;61.10;;;;;;5013534;28;20038;-60
2023/07/11 02:28:57;;;;;;;1.30;0.70;;;24.00;61.20;;;;;;5015705;28;20042;-60
2023/07/11 02:31:22;;;;;;;1.52;0.63;;;24.00;61.20;;;;;;5015191;28;20042;-60
2023/07/11 02:33:48;;;;;;;1.83;0.65;;;24.00;61.20;;;;;;5012904;28;20042;-60
2023/07/11 02:36:14;;;;;;;1.83;0.80;;;24.00;61.20;;;;;;5014960;28;20042;-60
2023/07/11 02:38:39;;;;;;;1.25;0.60;;;24.00;61.20;;;;;;5014702;28;20125;-60
2023/07/11 02:41:05;;;;;;;0.98;0.60;;;24.00;61.20;;;;;;5013423;28;20548;-60
2023/07/11 02:43:31;;;;;;;1.38;0.63;;;24.00;61.30;;;;;;5013509;28;20050;-60
2023/07/11 02:45:56;;;;;;;1.42;0.60;;;24.00;61.20;;;;;;5014839;28;20049;-60
2023/07/11 02:48:24;;;;;;;1.40;0.80;;;24.00;61.20;;;;;;5032875;28;20064;-60
2023/07/11 02:50:49;;;;;;;1.85;1.00;;;24.00;61.20;;;;;;5033278;28;20046;-60
2023/07/11 02:53:15;;;;;;;2.15;0.80;;;24.00;61.30;;;;;;5033864;28;20052;-60
2023/07/11 02:55:40;;;;;;;1.60;0.60;;;24.00;61.30;;;;;;5034400;28;20061;-60
2023/07/11 02:58:06;;;;;;;1.15;0.60;;;24.00;61.30;;;;;;5034300;28;20053;-60
2023/07/11 03:00:32;;;;;;;0.88;0.50;;;24.00;61.30;;;;;;5033426;28;20064;-60
2023/07/11 03:02:57;;;;;;;1.80;0.65;;;24.00;61.30;;;;;;5032888;28;20400;-60
2023/07/11 03:05:23;;;;;;;1.77;0.82;;;24.00;61.30;;;;;;5034035;28;20065;-60
2023/07/11 03:07:48;;;;;;;0.82;0.60;;;24.00;61.30;;;;;;5033106;28;20718;-60
2023/07/11 03:10:14;;;;;;;2.38;0.80;;;24.00;61.40;;;;;;5034399;28;20125;-60
2023/07/11 03:12:39;;;;;;;1.33;0.80;;;24.00;61.40;;;;;;5033637;28;20076;-60
2023/07/11 03:15:06;;;;;;;2.00;0.90;;;24.00;61.40;;;;;;5032866;28;20180;-60
2023/07/11 03:17:31;;;;;;;1.83;0.70;;;24.00;61.40;;;;;;5032471;28;20034;-60
2023/07/11 03:19:57;;;;;;;1.90;0.60;;;24.00;61.40;;;;;;5033827;28;20045;-60
2023/07/11 03:22:23;;;;;;;2.22;0.98;;;24.00;61.40;;;;;;5032479;28;20536;-60
2023/07/11 03:24:48;;;;;;;1.65;0.70;;;24.00;61.40;;;;;;5034107;28;20049;-60
2023/07/11 03:27:14;;;;;;;2.33;0.70;;;23.90;61.40;;;;;;5033900;28;20037;-60
2023/07/11 03:29:39;;;;;;;1.50;0.82;;;23.90;61.40;;;;;;5033399;28;20140;-60
2023/07/11 03:32:06;;;;;;;1.85;0.77;;;24.00;61.40;;;;;;5033577;28;20033;-60
2023/07/11 03:34:32;;;;;;;1.33;0.75;;;24.00;61.40;;;;;;5033004;28;20045;-60
2023/07/11 03:36:57;;;;;;;1.88;0.65;;;24.00;61.50;;;;;;5033465;28;20135;-60
2023/07/11 03:39:24;;;;;;;2.25;0.90;;;23.90;61.50;;;;;;5033217;28;20088;-60
2023/07/11 03:41:49;;;;;;;1.15;0.60;;;23.90;61.50;;;;;;5032906;28;20488;-60
2023/07/11 03:44:15;;;;;;;1.75;0.82;;;23.90;61.50;;;;;;5033554;28;20508;-60
2023/07/11 03:46:41;;;;;;;1.77;0.60;;;23.90;61.50;;;;;;5032984;28;20041;-60
2023/07/11 03:49:06;;;;;;;2.08;0.75;;;23.90;61.50;;;;;;5033451;28;20033;-60
2023/07/11 03:51:32;;;;;;;1.40;0.60;;;23.90;61.50;;;;;;5032959;28;20514;-60
2023/07/11 03:53:57;;;;;;;1.30;0.80;;;23.90;61.50;;;;;;5013732;28;20057;-60
2023/07/11 03:56:23;;;;;;;3.22;0.77;;;23.90;61.60;;;;;;5013895;28;20069;-60
2023/07/11 03:58:49;;;;;;;1.63;0.95;;;23.90;61.50;;;;;;5012939;28;20111;-60
2023/07/11 04:01:15;;;;;;;1.88;0.60;;;23.90;61.60;;;;;;5014651;28;20041;-60
2023/07/11 04:03:43;;;;;;;1.42;0.63;;;23.90;61.60;;;;;;5014561;28;20042;-60
2023/07/11 04:06:08;;;;;;;1.50;0.73;;;23.90;61.60;;;;;;5013110;28;20074;-60
2023/07/11 04:08:34;;;;;;;2.13;0.70;;;23.90;61.60;;;;;;5012994;28;20396;-60
2023/07/11 04:11:00;;;;;;;2.10;0.85;;;23.90;61.60;;;;;;5012712;28;20404;-61
2023/07/11 04:13:25;;;;;;;1.13;0.75;;;23.90;61.70;;;;;;5013391;28;20038;-59
2023/07/11 04:15:51;;;;;;;1.08;0.70;;;23.90;61.70;;;;;;5013190;28;20046;-60
2023/07/11 04:18:16;;;;;;;1.30;0.63;;;23.90;61.70;;;;;;5025734;28;20041;-60
2023/07/11 04:20:42;;;;;;;2.03;0.80;;;23.90;61.70;;;;;;5032819;28;20034;-60
2023/07/11 04:23:08;;;;;;;1.52;0.75;;;23.90;61.70;;;;;;5032670;28;20037;-60
2023/07/11 04:25:33;;;;;;;0.90;0.50;;;23.90;61.80;;;;;;5031269;28;20099;-61
2023/07/11 04:27:59;;;;;;;1.50;0.90;;;23.90;61.80;;;;;;5033081;28;20045;-61
2023/07/11 04:30:24;;;;;;;1.35;0.80;;;23.90;61.80;;;;;;5031413;28;20041;-61
2023/07/11 04:32:51;;;;;;;1.63;0.75;;;23.80;61.70;;;;;;5032086;28;20052;-61
2023/07/11 04:35:17;;;;;;;1.83;0.77;;;23.90;61.80;;;;;;5032604;28;20463;-61
2023/07/11 04:37:43;;;;;;;1.38;0.70;;;23.90;61.80;;;;;;5031950;28;20496;-61
2023/07/11 04:40:09;;;;;;;2.58;0.95;;;23.90;61.80;;;;;;5032568;28;20473;-61
2023/07/11 04:42:35;;;;;;;1.40;0.70;;;23.80;61.80;;;;;;5031318;28;20049;-61
2023/07/11 04:45:00;;;;;;;2.22;0.90;;;23.90;61.90;;;;;;5032502;28;20056;-61
2023/07/11 04:47:27;;;;;;;2.30;0.90;;;23.90;61.90;;;;;;5032154;28;20524;-61
2023/07/11 04:49:53;;;;;;;2.05;0.95;;;23.90;61.90;;;;;;5032471;28;20124;-61
2023/07/11 04:52:18;;;;;;;1.30;0.70;;;23.90;61.90;;;;;;5032199;28;20033;-61
2023/07/11 04:54:44;;;;;;;1.50;0.85;;;23.80;61.80;;;;;;5031656;28;20091;-61
2023/07/11 04:57:09;;;;;;;2.10;0.75;;;23.90;61.90;;;;;;5031006;28;20076;-61
2023/07/11 04:59:35;;;;;;;2.40;0.80;;;23.80;62.10;;;;;;5032373;28;20044;-61
2023/07/11 05:02:01;;;;;;;1.35;0.80;;;23.80;61.90;;;;;;5032155;28;20103;-61
2023/07/11 05:04:26;;;;;;;1.50;0.90;;;23.90;61.90;;;;;;5013116;28;20571;-61
2023/07/11 05:06:52;;;;;;;1.55;0.80;;;23.80;61.90;;;;;;5016725;28;20041;-60
2023/07/11 05:09:18;;;;;;;1.10;0.70;;;23.80;61.90;;;;;;5012656;28;20056;-61
2023/07/11 05:11:43;;;;;;;2.50;0.80;;;23.80;62.00;;;;;;5012559;28;20496;-61
2023/07/11 05:14:09;;;;;;;1.75;0.80;;;23.80;62.00;;;;;;5012221;28;20046;-61
2023/07/11 05:16:35;;;;;;;1.48;0.70;;;23.80;62.00;;;;;;5012353;28;20053;-61
2023/07/11 05:19:00;;;;;;;1.58;0.90;;;23.90;62.10;;;;;;5027912;28;20046;-61
2023/07/11 05:21:26;;;;;;;1.77;0.82;;;23.80;62.10;;;;;;5031958;28;20037;-61
2023/07/11 05:23:52;;;;;;;2.03;0.88;;;23.80;62.10;;;;;;5032020;28;20547;-61
2023/07/11 05:26:18;;;;;;;1.52;0.90;;;23.80;62.10;;;;;;5032434;28;20121;-61
2023/07/11 05:28:45;;;;;;;1.98;0.80;;;23.80;62.10;;;;;;5031339;28;20156;-61
2023/07/11 05:31:10;;;;;;;1.48;0.82;;;23.80;62.10;;;;;;5032041;28;20392;-61
2023/07/11 05:33:36;;;;;;;1.48;0.70;;;23.80;62.20;;;;;;5031251;28;20041;-61
2023/07/11 05:38:50;;;;;;;1.50;0.98;;;23.80;62.20;;;;;;5031945;28;20081;-60
2023/07/11 05:41:16;;;;;;;5.95;2.00;;;23.80;62.20;;;;;;5032246;28;20425;-60
2023/07/11 05:43:41;;;;;;;4.88;1.88;;;23.80;61.50;;;;;;5029891;28;20042;-61
2023/07/11 05:46:07;;;;;;;8.25;1.98;;;23.80;61.00;;;;;;5027608;28;20083;-61
2023/07/11 05:48:33;;;;;;;6.70;2.20;;;23.70;60.60;;;;;;5016324;28;20100;-61
2023/07/11 05:50:59;;;;;;;6.07;2.58;;;23.70;60.40;;;;;;5016852;28;20438;-61
2023/07/11 05:53:26;;;;;;;9.75;2.80;;;23.70;60.60;;;;;;5015767;28;20054;-61
2023/07/11 05:55:52;;;;;;;8.70;2.60;;;23.70;60.40;;;;;;5015816;28;20052;-61
2023/07/11 05:58:17;;;;;;;8.00;2.47;;;23.60;60.00;;;;;;5023035;28;20046;-61
2023/07/11 06:00:43;;;;;;;9.32;2.40;;;23.60;59.90;;;;;;5035495;28;20045;-61
2023/07/11 06:03:09;;;;;;;9.73;2.70;;;23.60;60.10;;;;;;5034604;28;20033;-61
2023/07/11 06:05:34;;;;;;;10.82;3.03;;;23.60;60.20;;;;;;5035570;28;20038;-62
2023/07/11 06:08:00;;;;;;;7.65;2.63;;;23.60;60.20;;;;;;5032756;28;20049;-62
2023/07/11 06:10:26;;;;;;;7.80;2.42;;;23.60;60.10;;;;;;5033523;28;20132;-59
2023/07/11 06:12:51;;;;;;;9.93;2.45;;;23.60;60.00;;;;;;5032767;28;20042;-60
2023/07/11 06:15:17;;;;;;;9.18;2.60;;;23.50;59.90;;;;;;5034223;28;20495;-60
2023/07/11 06:17:43;;;;;;;7.93;2.47;;;23.50;60.10;;;;;;5033088;28;20133;-59
2023/07/11 06:20:09;;;;;;;9.35;2.00;;;23.60;60.10;;;;;;5032053;28;20103;-60
2023/07/11 06:22:35;;;;;;;9.57;2.20;;;23.60;60.20;;;;;;5034302;28;20083;-60
2023/07/11 06:25:07;;;;;;;7.05;2.13;;;23.60;60.20;;;;;;5031286;28;20188;-60
2023/07/11 06:27:33;;;;;;;10.25;2.90;;;23.60;60.30;;;;;;5031904;28;20037;-60
2023/07/11 06:29:58;;;;;;;6.78;2.13;;;23.60;60.20;;;;;;5030815;28;20041;-60
2023/07/11 06:32:24;;;;;;;7.68;2.40;;;23.60;60.20;;;;;;5033853;28;20136;-60
2023/07/11 06:34:49;;;;;;;9.38;2.53;;;23.70;60.20;;;;;;5031433;28;20037;-60
2023/07/11 06:37:15;;;;;;;8.13;2.22;;;23.70;60.30;;;;;;5034899;28;20124;-60
2023/07/11 06:39:40;;;;;;;5.40;2.40;;;23.70;60.20;;;;;;5017587;28;20073;-60
2023/07/11 06:42:06;;;;;;;6.50;2.25;;;23.70;60.30;;;;;;5015118;28;20396;-60
2023/07/11 06:44:32;;;;;;;10.85;2.35;;;23.70;60.30;;;;;;5014780;28;20038;-60
2023/07/11 06:46:57;;;;;;;5.97;2.10;;;23.70;60.40;;;;;;5014305;28;20041;-60
2023/07/11 06:49:23;;;;;;;6.30;2.20;;;23.70;60.40;;;;;;5028390;28;20049;-59
2023/07/11 06:51:49;;;;;;;4.55;2.28;;;23.70;60.50;;;;;;5034465;28;20085;-60
2023/07/11 06:54:18;;;;;;;5.88;2.53;;;23.70;60.50;;;;;;5033654;28;20049;-59
2023/07/11 06:56:44;;;;;;;5.13;1.95;;;23.70;61.20;;;;;;5033164;28;20041;-60
2023/07/11 06:59:09;;;;;;;5.22;1.88;;;23.70;60.60;;;;;;5033750;28;20071;-60
2023/07/11 07:01:35;;;;;;;8.88;1.90;;;23.70;60.50;;;;;;5032094;28;20068;-60
2023/07/11 07:04:00;;;;;;;7.13;2.35;;;23.70;60.50;;;;;;5034040;28;20072;-60
2023/07/11 07:06:26;;;;;;;5.90;2.45;;;23.70;60.30;;;;;;5031990;28;20068;-60
2023/07/11 07:08:54;;;;;;;6.43;2.30;;;23.70;60.40;;;;;;5033902;28;20132;-59
2023/07/11 07:11:23;;;;;;;5.82;2.17;;;23.80;60.60;;;;;;5034072;28;20065;-59
2023/07/11 07:13:49;;;;;;;7.53;2.20;;;23.80;60.80;;;;;;5033154;28;20500;-59
2023/07/11 07:16:15;;;;;;;10.85;2.42;;;23.80;60.70;;;;;;5033900;28;20124;-59
2023/07/11 07:18:41;;;;;;;7.28;2.17;;;23.80;60.80;;;;;;5033291;28;20444;-60
2023/07/11 07:21:07;;;;;;;6.22;1.85;;;23.80;60.80;;;;;;5033032;28;20037;-59
2023/07/11 07:23:36;;;;;;;7.00;2.30;;;23.80;60.80;;;;;;5031699;28;20366;-59
2023/07/11 07:26:02;;;;;;;6.35;2.30;;;23.80;60.90;;;;;;5033642;28;20048;-59
2023/07/11 07:28:28;;;;;;;6.72;2.47;;;23.80;61.10;;;;;;5031225;28;20137;-59
2023/07/11 07:30:55;;;;;;;7.90;2.22;;;23.80;61.10;;;;;;5033671;28;20120;-59
2023/07/11 07:33:23;;;;;;;6.72;2.17;;;23.90;61.20;;;;;;5030860;28;20037;-59
2023/07/11 07:35:49;;;;;;;8.38;2.05;;;23.90;61.80;;;;;;5018941;28;20080;-58
2023/07/11 07:38:14;;;;;;;6.07;1.90;;;23.90;61.30;;;;;;5022541;28;20127;-59
2023/07/11 07:40:40;;;;;;;5.35;2.13;;;23.90;61.30;;;;;;5031596;28;20049;-59
2023/07/11 07:43:06;;;;;;;5.95;2.15;;;23.90;61.30;;;;;;5026282;28;20037;-58
2023/07/11 07:45:31;;;;;;;8.50;2.22;;;23.90;61.40;;;;;;5031197;28;20033;-59
2023/07/11 07:47:57;;;;;;;8.45;2.17;;;23.90;61.50;;;;;;5017214;28;20099;-59
2023/07/11 07:50:22;;;;;;;3.90;2.10;;;23.90;61.60;;;;;;5023221;28;20041;-59
2023/07/11 07:52:48;;;;;;;7.63;2.00;;;23.90;61.60;;;;;;5017957;28;20060;-59
2023/07/11 07:55:13;;;;;;;5.43;1.88;;;23.90;62.30;;;;;;5024099;28;20047;-59
2023/07/11 07:57:39;;;;;;;5.55;2.10;;;24.00;61.70;;;;;;5029049;28;20412;-60
2023/07/11 08:00:05;;;;;;;5.43;2.00;;;24.00;61.70;;;;;;5013172;28;20149;-60
2023/07/11 08:02:31;;;;;;;7.97;2.15;;;24.00;61.70;;;;;;5013325;28;20037;-59
2023/07/11 08:04:58;;;;;;;4.63;2.22;;;24.00;61.80;;;;;;5012826;28;20073;-59
2023/07/11 08:07:25;;;;;;;5.95;2.13;;;24.00;61.80;;;;;;5013076;28;20072;-59
2023/07/11 08:09:50;;;;;;;5.88;2.30;;;24.00;61.90;;;;;;5012762;28;20081;-59
2023/07/11 08:12:16;;;;;;;4.90;1.92;;;24.00;62.00;;;;;;5013460;28;20081;-59
2023/07/11 08:14:42;;;;;;;5.13;2.38;;;24.00;62.00;;;;;;5024434;28;20049;-59
2023/07/11 08:17:08;;;;;;;4.95;1.92;;;24.00;62.70;;;;;;5032795;28;20065;-59
2023/07/11 08:19:34;;;;;;;4.00;1.95;;;24.00;62.10;;;;;;5031430;28;20107;-59
2023/07/11 08:21:59;;;;;;;3.90;2.10;;;24.10;62.30;;;;;;5029589;28;20045;-60
2023/07/11 08:24:26;;;;;;;5.15;2.03;;;24.10;62.30;;;;;;5021084;28;20042;-60
2023/07/11 08:26:51;;;;;;;7.07;2.08;;;24.10;62.30;;;;;;5015740;28;20459;-60
2023/07/11 08:29:17;;;;;;;4.38;2.40;;;24.10;62.40;;;;;;5028888;28;20042;-60
2023/07/11 08:31:43;;;;;;;6.05;2.17;;;24.10;62.40;;;;;;5030431;28;20033;-60
2023/07/11 08:34:08;;;;;;;5.78;2.10;;;24.10;62.40;;;;;;5031542;28;20055;-60
2023/07/11 08:36:36;;;;;;;7.38;2.15;;;24.10;62.50;;;;;;5031178;28;20087;-61
2023/07/11 08:39:02;;;;;;;5.72;2.28;;;24.20;62.50;;;;;;5026068;28;20077;-60
2023/07/11 08:41:51;;;;;;;5.28;2.30;;;24.20;62.60;;;;;;5031923;28;20067;-59
2023/07/11 08:44:49;;;;;;;5.88;2.05;;;24.20;62.60;;;;;;5024166;28;20057;-60
2023/07/11 08:47:31;;;;;;;4.30;1.92;;;24.20;62.70;;;;;;5016414;28;20519;-58
2023/07/11 08:50:11;;;;;;;7.85;2.10;;;24.20;62.70;;;;;;5019047;28;20117;-59
2023/07/11 08:52:37;;;;;;;5.32;2.22;;;24.20;62.70;;;;;;4979571;28;20060;-59
2023/07/11 08:55:29;;;;;;;7.15;2.15;;;24.20;62.70;;;;;;5012470;28;20050;-59
2023/07/11 08:58:22;;;;;;;6.18;1.98;;;24.20;63.20;;;;;;5010531;28;20046;-59
2023/07/11 09:00:49;;;;;;;5.25;1.65;;;24.20;62.50;;;;;;5026838;28;20396;-59
2023/07/11 09:03:27;;;;;;;4.90;1.80;;;24.20;62.40;;;;;;5029161;28;20052;-59
2023/07/11 09:06:11;;;;;;;;;;;24.30;62.40;;;;;;5028034;28;20116;-59
2023/07/11 09:08:41;;;;;;;8.55;2.60;;;24.20;62.30;;;;;;5012842;28;20394;-59
2023/07/11 09:11:25;;;;;;;6.32;2.40;;;24.30;62.20;;;;;;5029895;28;20087;-62
2023/07/11 09:14:17;;;;;;;7.18;2.40;;;24.30;61.90;;;;;;5030881;28;20111;-59
2023/07/11 09:17:14;;;;;;;5.38;1.88;;;24.30;61.70;;;;;;5030928;28;20061;-58
2023/07/11 09:19:55;;;;;;;5.82;2.10;;;24.40;61.70;;;;;;5006733;28;20061;-58
2023/07/11 09:22:27;;;;;;;5.88;1.95;;;24.30;61.70;;;;;;5033710;28;20045;-59
2023/07/11 09:25:03;;;;;;;7.53;2.20;;;24.40;61.50;;;;;;5025085;28;20053;-60
2023/07/11 09:27:42;;;;;;;5.15;1.90;;;24.40;61.30;;;;;;5031528;28;20122;-59
2023/07/11 09:30:21;;;;;;;8.40;2.13;;;24.40;60.90;;;;;;5027133;28;20048;-67
2023/07/11 09:32:46;;;;;;;6.60;2.08;;;24.40;60.80;;;;;;5032507;28;20041;-60
2023/07/11 09:35:29;;;;;;;10.48;2.75;;;24.50;60.70;;;;;;5031073;28;20400;-60
2023/07/11 09:38:23;;;;;;;4.95;2.03;;;24.50;60.50;;;;;;5034330;28;20049;-60
2023/07/11 09:40:51;;;;;;;5.88;1.90;;;24.50;60.60;;;;;;5021681;28;20091;-59
2023/07/11 09:43:17;;;;;;;5.65;2.42;;;24.50;60.70;;;;;;5032369;28;20067;-59
2023/07/11 09:45:44;;;;;;;10.13;2.28;;;24.50;60.90;;;;;;5031895;28;20541;-60
2023/07/11 09:48:31;;;;;;;6.85;2.05;;;24.50;61.00;;;;;;5035189;28;20041;-60
2023/07/11 09:51:02;;;;;;;7.63;2.20;;;24.50;61.10;;;;;;5015730;28;20489;-60
2023/07/11 09:53:29;;;;;;;6.47;2.28;;;24.50;61.20;;;;;;5035014;28;20049;-59
2023/07/11 09:55:56;;;;;;;3.67;1.98;;;24.50;61.20;;;;;;5032214;28;20120;-60
2023/07/11 09:58:22;;;;;;;5.15;2.33;;;24.50;61.20;;;;;;5031414;28;20045;-60
2023/07/11 10:00:51;;;;;;;6.80;2.22;;;24.50;61.20;;;;;;5032497;28;20443;-59
2023/07/11 10:03:25;;;;;;;6.20;2.13;;;24.50;61.40;;;;;;5034715;28;20045;-60
2023/07/11 10:05:51;;;;;;;8.38;2.20;;;24.50;61.40;;;;;;5033131;28;20041;-60
2023/07/11 10:08:27;;;;;;;8.90;1.95;;;24.50;61.50;;;;;;5035119;28;20045;-60
2023/07/11 10:10:54;;;;;;;6.45;1.77;;;24.50;61.50;;;;;;5032988;28;20148;-59
2023/07/11 10:13:20;;;;;;;7.75;2.10;;;24.50;61.50;;;;;;5032030;28;20049;-59
2023/07/11 10:15:51;;;;;;;6.60;1.85;;;24.50;61.60;;;;;;5032075;28;20044;-60
2023/07/11 10:18:18;;;;;;;6.72;2.30;;;24.50;61.60;;;;;;5034235;28;20072;-59
2023/07/11 10:20:45;;;;;;;5.53;2.35;;;24.50;61.60;;;;;;5027562;28;20113;-60
2023/07/11 10:23:11;;;;;;;5.77;2.10;;;24.60;61.70;;;;;;5034995;28;20125;-60
2023/07/11 10:25:37;;;;;;;5.80;2.10;;;24.50;61.60;;;;;;5015862;28;20336;-60
2023/07/11 10:28:20;;;;;;;4.97;2.05;;;24.50;61.60;;;;;;5035033;28;20120;-60
2023/07/11 10:30:46;;;;;;;7.07;2.05;;;24.60;61.60;;;;;;5032852;28;20049;-60
2023/07/11 10:33:29;;;;;;;5.55;2.35;;;24.60;61.60;;;;;;5035121;28;20045;-60
2023/07/11 10:36:15;;;;;;;9.05;2.40;;;24.60;61.60;;;;;;5016795;28;20076;-61
2023/07/11 10:38:56;;;;;;;4.00;2.00;;;24.60;61.60;;;;;;5018545;28;20079;-60
2023/07/11 10:42:03;;;;;;;3.40;1.90;;;24.60;61.60;;;;;;5017549;28;20068;-61
2023/07/11 10:44:33;;;;;;;8.50;2.08;;;24.60;61.60;;;;;;5032864;28;20129;-61
2023/07/11 10:46:59;;;;;;;4.93;1.95;;;24.60;61.50;;;;;;5033997;28;20132;-61
2023/07/11 10:49:30;;;;;;;4.88;1.98;;;24.60;61.50;;;;;;5034155;28;20441;-61
2023/07/11 10:52:19;;;;;;;4.63;2.00;;;24.60;61.50;;;;;;5017163;28;20068;-61
2023/07/11 10:54:47;;;;;;;4.82;1.95;;;24.60;61.40;;;;;;5017017;28;20053;-60
2023/07/11 10:57:34;;;;;;;5.22;2.03;;;24.60;61.40;;;;;;5033308;28;20045;-60
2023/07/11 10:59:59;;;;;;;3.45;1.70;;;24.60;61.40;;;;;;5032196;28;20157;-60
2023/07/11 11:02:44;;;;;;;3.50;1.77;;;24.60;61.40;;;;;;5029225;28;20123;-59
2023/07/11 11:05:45;;;;;;;8.50;2.40;;;24.60;61.40;;;;;;5031899;28;20038;-60
2023/07/11 11:08:20;;;;;;;12.98;3.33;;;24.70;61.60;;;;;;4991971;28;20050;-60
2023/07/11 11:10:51;;;;;;;9.48;2.85;;;24.60;61.50;;;;;;5019964;28;20068;-60
2023/07/11 11:13:42;;;;;;;11.77;2.90;;;24.70;61.60;;;;;;5029652;28;20052;-59
2023/07/11 11:16:07;;;;;;;10.75;3.08;;;24.70;61.70;;;;;;5026461;28;20469;-60
2023/07/11 11:18:49;;;;;;;10.57;3.08;;;24.70;61.70;;;;;;5013775;28;20080;-59
2023/07/11 11:21:26;;;;;;;10.13;2.60;;;24.70;61.70;;;;;;5028650;28;20053;-60
2023/07/11 11:24:06;;;;;;;9.57;2.88;;;24.70;61.90;;;;;;5029298;28;20096;-60
2023/07/11 11:27:04;;;;;;;11.18;2.50;;;24.70;61.80;;;;;;5032181;28;20053;-60
2023/07/11 11:29:38;;;;;;;7.78;2.55;;;24.70;61.90;;;;;;5031320;28;20076;-59
2023/07/11 11:32:23;;;;;;;7.97;2.53;;;24.70;61.90;;;;;;5031630;28;20064;-60
2023/07/11 11:35:11;;;;;;;10.60;3.28;;;24.80;62.00;;;;;;5028400;28;20910;-60
2023/07/11 11:38:04;;;;;;;10.70;3.08;;;24.70;62.00;;;;;;5031440;28;20121;-60
2023/07/11 11:40:30;;;;;;;10.05;2.58;;;24.80;62.10;;;;;;5023387;28;20100;-61
2023/07/11 11:43:00;;;;;;;10.05;2.60;;;24.80;62.10;;;;;;5030416;28;20068;-60
2023/07/11 11:45:26;;;;;;;6.85;2.80;;;24.80;62.10;;;;;;5028397;28;20478;-60
2023/07/11 11:47:53;;;;;;;7.60;2.55;;;24.80;62.10;;;;;;5031031;28;20063;-60
2023/07/11 11:50:20;;;;;;;7.90;2.60;;;24.80;62.20;;;;;;5027677;28;20507;-60
2023/07/11 11:52:45;;;;;;;6.93;2.30;;;24.80;62.20;;;;;;5030854;28;20041;-60
2023/07/11 11:55:37;;;;;;;8.07;2.72;;;24.80;62.10;;;;;;5031238;28;20042;-59
2023/07/11 11:58:03;;;;;;;8.50;2.30;;;24.80;62.10;;;;;;5028989;28;20042;-60
2023/07/11 12:00:39;;;;;;;8.13;2.53;;;24.80;62.10;;;;;;5030427;28;20072;-60
2023/07/11 12:03:16;;;;;;;5.75;2.22;;;24.80;62.20;;;;;;5029081;28;20049;-60
2023/07/11 12:05:47;;;;;;;6.80;2.55;;;24.90;62.20;;;;;;5025995;28;20507;-61
2023/07/11 12:08:33;;;;;;;5.60;2.33;;;24.90;62.20;;;;;;5022727;28;20489;-60
2023/07/11 12:11:05;;;;;;;6.68;2.45;;;24.90;62.30;;;;;;5017336;28;20041;-60
2023/07/11 12:13:30;;;;;;;9.48;2.60;;;24.90;62.30;;;;;;5015963;28;20137;-60
2023/07/11 12:15:56;;;;;;;5.43;2.10;;;24.90;62.30;;;;;;5019115;28;20121;-60
2023/07/11 12:18:29;;;;;;;8.57;2.60;;;24.90;62.30;;;;;;5020016;28;20095;-60
2023/07/11 12:21:17;;;;;;;6.10;2.42;;;24.90;62.30;;;;;;5020002;28;20116;-61
2023/07/11 12:23:43;;;;;;;;;;;24.90;62.40;;;;;;5015924;28;20049;-61
2023/07/11 12:26:23;;;;;;;5.25;2.17;;;24.90;62.20;;;;;;5019212;28;20369;-60
2023/07/11 12:28:49;;;;;;;5.45;2.50;;;24.90;62.30;;;;;;5020750;28;20100;-60
2023/07/11 12:31:16;;;;;;;6.47;2.38;;;24.90;62.30;;;;;;5021895;28;20041;-60
2023/07/11 12:33:42;;;;;;;9.02;2.22;;;25.00;62.40;;;;;;5016107;28;20127;-60
2023/07/11 12:36:21;;;;;;;7.35;2.28;;;25.00;62.30;;;;;;5022193;28;20068;-60
2023/07/11 12:39:16;;;;;;;8.85;2.80;;;25.00;62.40;;;;;;5018118;28;20041;-60
2023/07/11 12:42:20;;;;;;;6.22;2.13;;;25.00;62.40;;;;;;5009179;28;20524;-61
2023/07/11 12:44:46;;;;;;;8.70;2.38;;;25.00;62.40;;;;;;5016838;28;20171;-61
2023/07/11 12:47:14;;;;;;;7.32;2.25;;;25.10;62.50;;;;;;5017794;28;20200;-60
2023/07/11 12:49:40;;;;;;;;;;;25.10;62.50;;;;;;5019904;28;20045;-60
2023/07/11 12:52:10;;;;;;;7.28;2.50;;;25.10;62.50;;;;;;5017640;28;19971;-61
2023/07/11 12:54:35;;;;;;;6.97;2.65;;;25.10;62.50;;;;;;5016498;28;20081;-61
2023/07/11 12:57:01;;;;;;;5.00;2.05;;;25.10;62.50;;;;;;5018003;28;20097;-60
2023/07/11 12:59:28;;;;;;;6.07;2.17;;;25.10;62.50;;;;;;5016759;28;20437;-61
2023/07/11 13:01:56;;;;;;;5.07;2.65;;;25.10;62.40;;;;;;5018812;28;20048;-61